sensor_id;sensor_type;location;lat;lon;timestamp;pressure;altitude;pressure_sealevel;temperature;humidity
27643;BME280;15053;48.618;10.024;2023-12-28T00:01:45;94374.69;;;4.80;68.73
27643;BME280;15053;48.618;10.024;2023-12-28T00:04:12;94387.81;;;4.78;68.32
27643;BME280;15053;48.618;10.024;2023-12-28T00:06:39;94387.06;;;4.78;68.60
27643;BME280;15053;48.618;10.024;2023-12-28T00:09:05;94394.25;;;4.75;69.16
27643;BME280;15053;48.618;10.024;2023-12-28T00:11:38;94389.31;;;4.69;68.84
27643;BME280;15053;48.618;10.024;2023-12-28T00:14:04;94411.41;;;4.60;69.37
27643;BME280;15053;48.618;10.024;2023-12-28T00:16:32;94404.41;;;4.55;69.43
27643;BME280;15053;48.618;10.024;2023-12-28T00:18:59;94403.34;;;4.51;70.02
27643;BME280;15053;48.618;10.024;2023-12-28T00:21:29;94409.81;;;4.54;69.79
27643;BME280;15053;48.618;10.024;2023-12-28T00:23:55;94416.28;;;4.56;69.75
27643;BME280;15053;48.618;10.024;2023-12-28T00:26:22;94410.09;;;4.57;70.33
27643;BME280;15053;48.618;10.024;2023-12-28T00:28:59;94410.88;;;4.58;70.50
27643;BME280;15053;48.618;10.024;2023-12-28T00:31:26;94406.97;;;4.50;70.25
27643;BME280;15053;48.618;10.024;2023-12-28T00:33:52;94394.50;;;4.42;70.38
27643;BME280;15053;48.618;10.024;2023-12-28T00:36:19;94400.16;;;4.39;70.48
27643;BME280;15053;48.618;10.024;2023-12-28T00:38:47;94400.72;;;4.46;70.56
27643;BME280;15053;48.618;10.024;2023-12-28T00:41:13;94407.97;;;4.49;70.83
27643;BME280;15053;48.618;10.024;2023-12-28T00:43:40;94395.59;;;4.51;71.32
27643;BME280;15053;48.618;10.024;2023-12-28T00:46:06;94392.56;;;4.59;70.57
27643;BME280;15053;48.618;10.024;2023-12-28T00:48:32;94389.31;;;4.69;70.34
27643;BME280;15053;48.618;10.024;2023-12-28T00:51:00;94391.44;;;4.77;69.94
27643;BME280;15053;48.618;10.024;2023-12-28T00:53:26;94387.09;;;4.83;68.96
27643;BME280;15053;48.618;10.024;2023-12-28T00:55:54;94390.22;;;4.90;68.44
27643;BME280;15053;48.618;10.024;2023-12-28T00:58:21;94403.44;;;4.98;68.57
27643;BME280;15053;48.618;10.024;2023-12-28T01:00:48;94406.34;;;5.07;67.77
27643;BME280;15053;48.618;10.024;2023-12-28T01:03:14;94407.44;;;5.16;66.78
27643;BME280;15053;48.618;10.024;2023-12-28T01:05:41;94403.34;;;5.25;66.21
27643;BME280;15053;48.618;10.024;2023-12-28T01:08:08;94406.00;;;5.30;66.36
27643;BME280;15053;48.618;10.024;2023-12-28T01:10:34;94400.28;;;5.28;65.72
27643;BME280;15053;48.618;10.024;2023-12-28T01:13:01;94396.66;;;5.24;66.59
27643;BME280;15053;48.618;10.024;2023-12-28T01:15:28;94393.53;;;5.22;66.32
27643;BME280;15053;48.618;10.024;2023-12-28T01:17:55;94402.31;;;5.21;66.03
27643;BME280;15053;48.618;10.024;2023-12-28T01:20:23;94399.47;;;5.22;66.26
27643;BME280;15053;48.618;10.024;2023-12-28T01:22:49;94400.25;;;5.23;66.00
27643;BME280;15053;48.618;10.024;2023-12-28T01:25:16;94404.38;;;5.19;65.26
27643;BME280;15053;48.618;10.024;2023-12-28T01:27:43;94408.19;;;5.11;65.84
27643;BME280;15053;48.618;10.024;2023-12-28T01:30:10;94406.06;;;5.03;66.17
27643;BME280;15053;48.618;10.024;2023-12-28T01:32:37;94407.03;;;4.97;65.38
27643;BME280;15053;48.618;10.024;2023-12-28T01:35:03;94413.44;;;4.90;65.89
27643;BME280;15053;48.618;10.024;2023-12-28T01:37:30;94423.72;;;4.85;66.22
27643;BME280;15053;48.618;10.024;2023-12-28T01:40:00;94414.34;;;4.73;66.39
27643;BME280;15053;48.618;10.024;2023-12-28T01:42:26;94401.66;;;4.67;67.15
27643;BME280;15053;48.618;10.024;2023-12-28T01:44:53;94411.66;;;4.58;67.54
27643;BME280;15053;48.618;10.024;2023-12-28T01:47:20;94418.00;;;4.46;68.02
27643;BME280;15053;48.618;10.024;2023-12-28T01:49:46;94420.97;;;4.33;68.39
27643;BME280;15053;48.618;10.024;2023-12-28T01:52:13;94430.41;;;4.22;68.82
27643;BME280;15053;48.618;10.024;2023-12-28T01:54:40;94418.44;;;4.11;69.71
27643;BME280;15053;48.618;10.024;2023-12-28T01:57:07;94415.25;;;4.04;70.60
27643;BME280;15053;48.618;10.024;2023-12-28T01:59:34;94422.97;;;4.04;70.92
27643;BME280;15053;48.618;10.024;2023-12-28T02:02:01;94432.22;;;4.00;70.90
27643;BME280;15053;48.618;10.024;2023-12-28T02:04:27;94432.19;;;3.95;71.49
27643;BME280;15053;48.618;10.024;2023-12-28T02:06:59;94436.97;;;3.86;71.42
27643;BME280;15053;48.618;10.024;2023-12-28T02:09:26;94431.22;;;3.79;71.72
27643;BME280;15053;48.618;10.024;2023-12-28T02:11:54;94418.00;;;3.71;71.81
27643;BME280;15053;48.618;10.024;2023-12-28T02:14:22;94420.56;;;3.71;72.63
27643;BME280;15053;48.618;10.024;2023-12-28T02:19:45;94417.28;;;3.75;72.72
27643;BME280;15053;48.618;10.024;2023-12-28T02:22:14;94432.56;;;3.82;72.39
27643;BME280;15053;48.618;10.024;2023-12-28T02:25:04;94434.28;;;3.98;71.93
27643;BME280;15053;48.618;10.024;2023-12-28T02:27:31;94433.25;;;3.99;71.64
27643;BME280;15053;48.618;10.024;2023-12-28T02:29:57;94430.19;;;4.02;71.27
27643;BME280;15053;48.618;10.024;2023-12-28T02:35:33;94431.75;;;4.03;71.52
27643;BME280;15053;48.618;10.024;2023-12-28T02:38:09;94439.97;;;4.00;71.63
27643;BME280;15053;48.618;10.024;2023-12-28T02:40:38;94443.06;;;4.02;71.93
27643;BME280;15053;48.618;10.024;2023-12-28T02:43:06;94441.03;;;4.04;71.95
27643;BME280;15053;48.618;10.024;2023-12-28T02:45:33;94444.94;;;4.06;71.68
27643;BME280;15053;48.618;10.024;2023-12-28T02:48:01;94448.88;;;4.14;71.60
27643;BME280;15053;48.618;10.024;2023-12-28T02:50:28;94441.50;;;4.23;71.67
27643;BME280;15053;48.618;10.024;2023-12-28T02:52:56;94438.75;;;4.34;70.43
27643;BME280;15053;48.618;10.024;2023-12-28T02:55:23;94441.41;;;4.39;70.46
27643;BME280;15053;48.618;10.024;2023-12-28T02:57:51;94432.19;;;4.48;69.69
27643;BME280;15053;48.618;10.024;2023-12-28T03:00:19;94439.81;;;4.65;68.88
27643;BME280;15053;48.618;10.024;2023-12-28T03:02:45;94441.22;;;4.78;68.13
27643;BME280;15053;48.618;10.024;2023-12-28T03:05:12;94438.44;;;4.84;67.11
27643;BME280;15053;48.618;10.024;2023-12-28T03:07:39;94437.75;;;4.94;66.93
27643;BME280;15053;48.618;10.024;2023-12-28T03:10:07;94435.19;;;4.99;67.05
27643;BME280;15053;48.618;10.024;2023-12-28T03:12:37;94447.44;;;5.13;65.08
27643;BME280;15053;48.618;10.024;2023-12-28T03:15:04;94446.25;;;5.31;64.74
27643;BME280;15053;48.618;10.024;2023-12-28T03:17:31;94444.53;;;5.47;63.74
27643;BME280;15053;48.618;10.024;2023-12-28T03:19:59;94438.69;;;5.61;62.44
27643;BME280;15053;48.618;10.024;2023-12-28T03:22:26;94442.38;;;5.75;61.42
27643;BME280;15053;48.618;10.024;2023-12-28T03:24:53;94442.44;;;5.85;60.98
27643;BME280;15053;48.618;10.024;2023-12-28T03:27:19;94440.41;;;5.92;61.10
27643;BME280;15053;48.618;10.024;2023-12-28T03:29:46;94437.84;;;5.98;59.78
27643;BME280;15053;48.618;10.024;2023-12-28T03:32:13;94433.19;;;6.05;59.78
27643;BME280;15053;48.618;10.024;2023-12-28T03:34:40;94433.50;;;6.13;58.93
27643;BME280;15053;48.618;10.024;2023-12-28T03:37:07;94423.19;;;6.23;59.02
27643;BME280;15053;48.618;10.024;2023-12-28T03:39:33;94427.88;;;6.31;58.67
27643;BME280;15053;48.618;10.024;2023-12-28T03:42:00;94427.59;;;6.38;58.49
27643;BME280;15053;48.618;10.024;2023-12-28T03:44:27;94425.28;;;6.46;57.83
27643;BME280;15053;48.618;10.024;2023-12-28T03:46:53;94425.06;;;6.53;57.80
27643;BME280;15053;48.618;10.024;2023-12-28T03:49:20;94416.50;;;6.58;57.28
27643;BME280;15053;48.618;10.024;2023-12-28T03:51:49;94420.91;;;6.62;57.31
27643;BME280;15053;48.618;10.024;2023-12-28T03:54:17;94427.91;;;6.62;57.42
27643;BME280;15053;48.618;10.024;2023-12-28T03:56:45;94433.09;;;6.62;57.69
27643;BME280;15053;48.618;10.024;2023-12-28T03:59:12;94425.56;;;6.60;57.52
27643;BME280;15053;48.618;10.024;2023-12-28T04:01:38;94436.94;;;6.54;58.35
27643;BME280;15053;48.618;10.024;2023-12-28T04:04:05;94433.56;;;6.43;58.06
27643;BME280;15053;48.618;10.024;2023-12-28T04:06:31;94432.25;;;6.31;58.42
27643;BME280;15053;48.618;10.024;2023-12-28T04:08:58;94436.63;;;6.20;59.64
27643;BME280;15053;48.618;10.024;2023-12-28T04:11:25;94438.91;;;6.12;59.93
27643;BME280;15053;48.618;10.024;2023-12-28T04:13:51;94447.69;;;6.01;60.04
27643;BME280;15053;48.618;10.024;2023-12-28T04:16:18;94453.06;;;5.89;60.38
27643;BME280;15053;48.618;10.024;2023-12-28T04:18:44;94450.91;;;5.76;61.30
27643;BME280;15053;48.618;10.024;2023-12-28T04:21:12;94441.78;;;5.63;61.35
27643;BME280;15053;48.618;10.024;2023-12-28T04:23:40;94443.00;;;5.51;62.82
27643;BME280;15053;48.618;10.024;2023-12-28T04:26:08;94440.63;;;5.39;62.42
27643;BME280;15053;48.618;10.024;2023-12-28T04:28:34;94444.16;;;5.28;63.21
27643;BME280;15053;48.618;10.024;2023-12-28T04:31:03;94449.28;;;5.18;63.79
27643;BME280;15053;48.618;10.024;2023-12-28T04:33:30;94439.63;;;5.08;64.18
27643;BME280;15053;48.618;10.024;2023-12-28T04:36:03;94441.41;;;5.03;65.02
27643;BME280;15053;48.618;10.024;2023-12-28T04:38:31;94435.19;;;4.99;65.07
27643;BME280;15053;48.618;10.024;2023-12-28T04:40:59;94437.28;;;5.02;64.49
27643;BME280;15053;48.618;10.024;2023-12-28T04:43:26;94438.34;;;5.06;64.85
27643;BME280;15053;48.618;10.024;2023-12-28T04:45:53;94438.88;;;5.08;64.17
27643;BME280;15053;48.618;10.024;2023-12-28T04:48:20;94425.97;;;5.08;64.09
27643;BME280;15053;48.618;10.024;2023-12-28T04:50:48;94436.34;;;5.13;63.98
27643;BME280;15053;48.618;10.024;2023-12-28T04:53:15;94439.97;;;5.17;63.50
27643;BME280;15053;48.618;10.024;2023-12-28T04:55:42;94436.84;;;5.15;64.22
27643;BME280;15053;48.618;10.024;2023-12-28T04:58:10;94435.06;;;5.15;63.82
27643;BME280;15053;48.618;10.024;2023-12-28T05:00:38;94427.84;;;5.17;64.24
27643;BME280;15053;48.618;10.024;2023-12-28T05:03:05;94426.31;;;5.21;63.70
27643;BME280;15053;48.618;10.024;2023-12-28T05:05:33;94429.16;;;5.25;63.56
27643;BME280;15053;48.618;10.024;2023-12-28T05:08:00;94428.44;;;5.29;63.13
27643;BME280;15053;48.618;10.024;2023-12-28T05:10:27;94432.63;;;5.35;63.47
27643;BME280;15053;48.618;10.024;2023-12-28T05:12:54;94432.91;;;5.44;62.75
27643;BME280;15053;48.618;10.024;2023-12-28T05:15:27;94438.38;;;5.53;62.22
27643;BME280;15053;48.618;10.024;2023-12-28T05:17:54;94445.41;;;5.62;62.79
27643;BME280;15053;48.618;10.024;2023-12-28T05:20:21;94448.78;;;5.68;61.96
27643;BME280;15053;48.618;10.024;2023-12-28T05:22:48;94444.94;;;5.70;62.12
27643;BME280;15053;48.618;10.024;2023-12-28T05:25:15;94449.56;;;5.68;61.56
27643;BME280;15053;48.618;10.024;2023-12-28T05:27:41;94450.59;;;5.67;61.81
27643;BME280;15053;48.618;10.024;2023-12-28T05:30:09;94443.63;;;5.68;61.99
27643;BME280;15053;48.618;10.024;2023-12-28T05:32:37;94438.19;;;5.69;61.64
27643;BME280;15053;48.618;10.024;2023-12-28T05:35:04;94448.31;;;5.76;61.86
27643;BME280;15053;48.618;10.024;2023-12-28T05:37:31;94442.88;;;5.77;61.00
27643;BME280;15053;48.618;10.024;2023-12-28T05:39:58;94449.63;;;5.78;61.51
27643;BME280;15053;48.618;10.024;2023-12-28T05:42:24;94445.75;;;5.81;61.23
27643;BME280;15053;48.618;10.024;2023-12-28T05:44:51;94449.63;;;5.83;60.86
27643;BME280;15053;48.618;10.024;2023-12-28T05:47:17;94446.28;;;5.83;60.75
27643;BME280;15053;48.618;10.024;2023-12-28T05:49:44;94446.56;;;5.86;60.87
27643;BME280;15053;48.618;10.024;2023-12-28T05:52:11;94454.59;;;5.85;60.90
27643;BME280;15053;48.618;10.024;2023-12-28T05:54:37;94450.41;;;5.84;61.51
27643;BME280;15053;48.618;10.024;2023-12-28T05:57:04;94446.00;;;5.79;62.11
27643;BME280;15053;48.618;10.024;2023-12-28T05:59:30;94452.69;;;5.75;62.40
27643;BME280;15053;48.618;10.024;2023-12-28T06:01:57;94443.88;;;5.71;62.26
27643;BME280;15053;48.618;10.024;2023-12-28T06:04:23;94443.38;;;5.69;63.48
27643;BME280;15053;48.618;10.024;2023-12-28T06:06:50;94450.84;;;5.66;62.34
27643;BME280;15053;48.618;10.024;2023-12-28T06:09:16;94459.88;;;5.63;63.90
27643;BME280;15053;48.618;10.024;2023-12-28T06:11:43;94455.44;;;5.54;64.75
27643;BME280;15053;48.618;10.024;2023-12-28T06:14:09;94452.03;;;5.43;64.82
27643;BME280;15053;48.618;10.024;2023-12-28T06:16:36;94451.44;;;5.36;64.52
27643;BME280;15053;48.618;10.024;2023-12-28T06:19:02;94449.34;;;5.33;65.16
27643;BME280;15053;48.618;10.024;2023-12-28T06:21:29;94462.78;;;5.30;64.90
27643;BME280;15053;48.618;10.024;2023-12-28T06:23:57;94469.19;;;5.27;65.53
27643;BME280;15053;48.618;10.024;2023-12-28T06:26:24;94473.84;;;5.25;65.61
27643;BME280;15053;48.618;10.024;2023-12-28T06:28:50;94473.06;;;5.25;66.24
27643;BME280;15053;48.618;10.024;2023-12-28T06:31:17;94473.31;;;5.23;66.17
27643;BME280;15053;48.618;10.024;2023-12-28T06:33:44;94468.91;;;5.19;66.65
27643;BME280;15053;48.618;10.024;2023-12-28T06:36:11;94471.72;;;5.17;66.18
27643;BME280;15053;48.618;10.024;2023-12-28T06:38:38;94465.50;;;5.13;66.70
27643;BME280;15053;48.618;10.024;2023-12-28T06:41:12;94469.38;;;5.11;67.15
27643;BME280;15053;48.618;10.024;2023-12-28T06:43:38;94466.72;;;5.06;67.47
27643;BME280;15053;48.618;10.024;2023-12-28T06:46:05;94470.34;;;5.05;66.91
27643;BME280;15053;48.618;10.024;2023-12-28T06:48:31;94466.19;;;5.04;67.42
27643;BME280;15053;48.618;10.024;2023-12-28T06:50:58;94471.34;;;5.04;68.33
27643;BME280;15053;48.618;10.024;2023-12-28T06:53:25;94475.03;;;5.08;67.71
27643;BME280;15053;48.618;10.024;2023-12-28T06:55:51;94481.53;;;5.15;67.49
27643;BME280;15053;48.618;10.024;2023-12-28T06:58:18;94478.19;;;5.20;68.35
27643;BME280;15053;48.618;10.024;2023-12-28T07:00:44;94477.47;;;5.24;68.02
27643;BME280;15053;48.618;10.024;2023-12-28T07:03:11;94478.28;;;5.30;68.82
27643;BME280;15053;48.618;10.024;2023-12-28T07:05:38;94482.91;;;5.33;68.45
27643;BME280;15053;48.618;10.024;2023-12-28T07:08:04;94491.22;;;5.35;68.58
27643;BME280;15053;48.618;10.024;2023-12-28T07:10:31;94492.81;;;5.41;68.74
27643;BME280;15053;48.618;10.024;2023-12-28T07:12:58;94493.34;;;5.43;67.72
27643;BME280;15053;48.618;10.024;2023-12-28T07:15:24;94475.25;;;5.43;68.10
27643;BME280;15053;48.618;10.024;2023-12-28T07:17:51;94479.38;;;5.44;69.07
27643;BME280;15053;48.618;10.024;2023-12-28T07:20:18;94482.50;;;5.46;68.39
27643;BME280;15053;48.618;10.024;2023-12-28T07:22:44;94485.09;;;5.46;68.81
27643;BME280;15053;48.618;10.024;2023-12-28T07:25:11;94490.00;;;5.48;68.95
27643;BME280;15053;48.618;10.024;2023-12-28T07:27:37;94499.06;;;5.50;68.52
27643;BME280;15053;48.618;10.024;2023-12-28T07:30:05;94493.16;;;5.55;68.28
27643;BME280;15053;48.618;10.024;2023-12-28T07:32:31;94490.84;;;5.58;69.08
27643;BME280;15053;48.618;10.024;2023-12-28T07:34:58;94489.56;;;5.61;68.58
27643;BME280;15053;48.618;10.024;2023-12-28T07:37:25;94482.34;;;5.63;69.32
27643;BME280;15053;48.618;10.024;2023-12-28T07:39:52;94483.09;;;5.63;69.20
27643;BME280;15053;48.618;10.024;2023-12-28T07:42:19;94477.44;;;5.66;69.06
27643;BME280;15053;48.618;10.024;2023-12-28T07:44:46;94486.50;;;5.69;68.87
27643;BME280;15053;48.618;10.024;2023-12-28T07:47:13;94490.38;;;5.71;68.60
27643;BME280;15053;48.618;10.024;2023-12-28T07:49:39;94497.63;;;5.74;68.64
27643;BME280;15053;48.618;10.024;2023-12-28T07:52:07;94500.28;;;5.79;68.96
27643;BME280;15053;48.618;10.024;2023-12-28T07:54:33;94496.66;;;5.80;68.20
27643;BME280;15053;48.618;10.024;2023-12-28T07:57:00;94493.56;;;5.83;68.99
27643;BME280;15053;48.618;10.024;2023-12-28T07:59:26;94499.28;;;5.85;68.81
27643;BME280;15053;48.618;10.024;2023-12-28T08:01:53;94496.16;;;5.83;68.80
27643;BME280;15053;48.618;10.024;2023-12-28T08:04:19;94494.16;;;5.90;68.28
27643;BME280;15053;48.618;10.024;2023-12-28T08:06:46;94500.63;;;5.93;68.14
27643;BME280;15053;48.618;10.024;2023-12-28T08:09:13;94512.78;;;5.98;68.25
27643;BME280;15053;48.618;10.024;2023-12-28T08:11:39;94514.88;;;6.01;67.94
27643;BME280;15053;48.618;10.024;2023-12-28T08:14:06;94512.31;;;6.06;68.38
27643;BME280;15053;48.618;10.024;2023-12-28T08:16:32;94507.16;;;6.11;67.95
27643;BME280;15053;48.618;10.024;2023-12-28T08:19:01;94511.03;;;6.13;67.85
27643;BME280;15053;48.618;10.024;2023-12-28T08:21:28;94504.59;;;6.16;68.04
27643;BME280;15053;48.618;10.024;2023-12-28T08:23:54;94516.50;;;6.17;67.76
27643;BME280;15053;48.618;10.024;2023-12-28T08:26:21;94510.56;;;6.21;67.23
27643;BME280;15053;48.618;10.024;2023-12-28T08:28:47;94504.88;;;6.24;67.96
27643;BME280;15053;48.618;10.024;2023-12-28T08:31:14;94508.78;;;6.27;67.09
27643;BME280;15053;48.618;10.024;2023-12-28T08:33:41;94506.97;;;6.32;67.17
27643;BME280;15053;48.618;10.024;2023-12-28T08:36:09;94507.78;;;6.33;67.24
27643;BME280;15053;48.618;10.024;2023-12-28T08:38:35;94512.72;;;6.39;67.69
27643;BME280;15053;48.618;10.024;2023-12-28T08:41:02;94502.63;;;6.43;68.11
27643;BME280;15053;48.618;10.024;2023-12-28T08:43:30;94504.97;;;6.49;68.24
27643;BME280;15053;48.618;10.024;2023-12-28T08:45:56;94506.81;;;6.59;67.65
27643;BME280;15053;48.618;10.024;2023-12-28T08:48:23;94499.81;;;6.60;67.19
27643;BME280;15053;48.618;10.024;2023-12-28T08:50:50;94513.81;;;6.69;67.48
27643;BME280;15053;48.618;10.024;2023-12-28T08:53:17;94511.50;;;6.72;67.29
27643;BME280;15053;48.618;10.024;2023-12-28T08:55:43;94511.00;;;6.75;68.17
27643;BME280;15053;48.618;10.024;2023-12-28T08:58:10;94511.78;;;6.81;68.27
27643;BME280;15053;48.618;10.024;2023-12-28T09:00:36;94517.22;;;6.84;68.47
27643;BME280;15053;48.618;10.024;2023-12-28T09:03:03;94517.25;;;6.89;67.35
27643;BME280;15053;48.618;10.024;2023-12-28T09:05:30;94522.16;;;6.96;68.74
27643;BME280;15053;48.618;10.024;2023-12-28T09:07:56;94525.53;;;7.01;67.73
27643;BME280;15053;48.618;10.024;2023-12-28T09:10:23;94524.00;;;7.05;67.27
27643;BME280;15053;48.618;10.024;2023-12-28T09:12:50;94522.94;;;7.06;68.32
27643;BME280;15053;48.618;10.024;2023-12-28T09:15:17;94526.81;;;7.09;68.43
27643;BME280;15053;48.618;10.024;2023-12-28T09:17:43;94523.19;;;7.10;68.74
27643;BME280;15053;48.618;10.024;2023-12-28T09:20:11;94535.13;;;7.11;67.85
27643;BME280;15053;48.618;10.024;2023-12-28T09:22:38;94532.25;;;7.12;68.40
27643;BME280;15053;48.618;10.024;2023-12-28T09:25:05;94530.97;;;7.15;68.54
27643;BME280;15053;48.618;10.024;2023-12-28T09:27:31;94534.84;;;7.18;67.96
27643;BME280;15053;48.618;10.024;2023-12-28T09:29:58;94533.84;;;7.19;67.65
27643;BME280;15053;48.618;10.024;2023-12-28T09:32:24;94551.44;;;7.22;67.37
27643;BME280;15053;48.618;10.024;2023-12-28T09:34:51;94550.16;;;7.24;67.45
27643;BME280;15053;48.618;10.024;2023-12-28T09:37:17;94539.53;;;7.26;68.21
27643;BME280;15053;48.618;10.024;2023-12-28T09:39:44;94540.56;;;7.30;68.27
27643;BME280;15053;48.618;10.024;2023-12-28T09:42:17;94534.09;;;7.32;67.35
27643;BME280;15053;48.618;10.024;2023-12-28T09:44:46;94529.16;;;7.31;67.57
27643;BME280;15053;48.618;10.024;2023-12-28T09:47:13;94522.94;;;7.32;67.41
27643;BME280;15053;48.618;10.024;2023-12-28T09:49:41;94527.63;;;7.30;67.73
27643;BME280;15053;48.618;10.024;2023-12-28T09:52:09;94519.84;;;7.30;67.84
27643;BME280;15053;48.618;10.024;2023-12-28T09:54:35;94510.50;;;7.29;68.19
27643;BME280;15053;48.618;10.024;2023-12-28T09:57:02;94525.03;;;7.30;67.67
27643;BME280;15053;48.618;10.024;2023-12-28T09:59:30;94529.16;;;7.31;67.36
27643;BME280;15053;48.618;10.024;2023-12-28T10:02:00;94513.09;;;7.34;67.02
27643;BME280;15053;48.618;10.024;2023-12-28T10:04:28;94501.97;;;7.33;67.01
27643;BME280;15053;48.618;10.024;2023-12-28T10:06:55;94520.63;;;7.35;66.66
27643;BME280;15053;48.618;10.024;2023-12-28T10:09:22;94508.69;;;7.34;66.66
27643;BME280;15053;48.618;10.024;2023-12-28T10:11:49;94517.25;;;7.35;67.14
27643;BME280;15053;48.618;10.024;2023-12-28T10:14:15;94521.91;;;7.33;67.30
27643;BME280;15053;48.618;10.024;2023-12-28T10:16:42;94497.31;;;7.30;67.35
27643;BME280;15053;48.618;10.024;2023-12-28T10:19:09;94506.38;;;7.33;67.16
27643;BME280;15053;48.618;10.024;2023-12-28T10:21:35;94507.69;;;7.30;66.99
27643;BME280;15053;48.618;10.024;2023-12-28T10:24:03;94510.28;;;7.30;67.46
27643;BME280;15053;48.618;10.024;2023-12-28T10:26:30;94498.06;;;7.31;66.78
27643;BME280;15053;48.618;10.024;2023-12-28T10:28:59;94511.28;;;7.29;67.71
27643;BME280;15053;48.618;10.024;2023-12-28T10:31:26;94502.22;;;7.32;67.09
27643;BME280;15053;48.618;10.024;2023-12-28T10:33:57;94501.72;;;7.35;66.97
27643;BME280;15053;48.618;10.024;2023-12-28T10:36:26;94504.03;;;7.36;67.90
27643;BME280;15053;48.618;10.024;2023-12-28T10:38:53;94505.59;;;7.37;68.17
27643;BME280;15053;48.618;10.024;2023-12-28T10:41:21;94504.56;;;7.43;67.65
27643;BME280;15053;48.618;10.024;2023-12-28T10:44:01;94510.50;;;7.49;68.25
27643;BME280;15053;48.618;10.024;2023-12-28T10:46:40;94505.03;;;7.55;67.72
27643;BME280;15053;48.618;10.024;2023-12-28T10:49:11;94503.22;;;7.61;68.50
27643;BME280;15053;48.618;10.024;2023-12-28T10:51:43;94505.28;;;7.64;67.68
27643;BME280;15053;48.618;10.024;2023-12-28T10:54:28;94506.34;;;7.68;68.10
27643;BME280;15053;48.618;10.024;2023-12-28T11:00:07;94503.50;;;7.75;67.98
27643;BME280;15053;48.618;10.024;2023-12-28T11:02:39;94508.91;;;7.78;67.04
27643;BME280;15053;48.618;10.024;2023-12-28T11:05:08;94499.81;;;7.81;67.29
27643;BME280;15053;48.618;10.024;2023-12-28T11:07:35;94504.75;;;7.82;67.79
27643;BME280;15053;48.618;10.024;2023-12-28T11:10:03;94500.38;;;7.83;67.58
27643;BME280;15053;48.618;10.024;2023-12-28T11:12:32;94506.84;;;7.85;67.27
27643;BME280;15053;48.618;10.024;2023-12-28T11:14:59;94508.88;;;7.83;67.32
27643;BME280;15053;48.618;10.024;2023-12-28T11:17:26;94496.47;;;7.85;66.92
27643;BME280;15053;48.618;10.024;2023-12-28T11:19:54;94497.50;;;7.84;66.73
27643;BME280;15053;48.618;10.024;2023-12-28T11:22:22;94494.41;;;7.82;67.03
27643;BME280;15053;48.618;10.024;2023-12-28T11:24:49;94487.66;;;7.81;67.21
27643;BME280;15053;48.618;10.024;2023-12-28T11:27:19;94471.06;;;7.82;67.78
27643;BME280;15053;48.618;10.024;2023-12-28T11:29:47;94460.66;;;7.87;68.18
27643;BME280;15053;48.618;10.024;2023-12-28T11:32:14;94456.50;;;7.91;67.93
27643;BME280;15053;48.618;10.024;2023-12-28T11:34:41;94456.72;;;8.00;67.81
27643;BME280;15053;48.618;10.024;2023-12-28T11:37:12;94448.41;;;8.08;67.73
27643;BME280;15053;48.618;10.024;2023-12-28T11:39:41;94449.69;;;8.15;67.83
27643;BME280;15053;48.618;10.024;2023-12-28T11:42:11;94463.66;;;8.19;67.61
27643;BME280;15053;48.618;10.024;2023-12-28T11:44:46;94455.34;;;8.27;67.22
27643;BME280;15053;48.618;10.024;2023-12-28T11:47:14;94439.78;;;8.27;67.49
27643;BME280;15053;48.618;10.024;2023-12-28T11:49:41;94443.91;;;8.34;67.16
27643;BME280;15053;48.618;10.024;2023-12-28T11:52:09;94442.06;;;8.39;66.99
27643;BME280;15053;48.618;10.024;2023-12-28T11:54:37;94449.56;;;8.46;67.06
27643;BME280;15053;48.618;10.024;2023-12-28T11:57:04;94459.66;;;8.47;66.96
27643;BME280;15053;48.618;10.024;2023-12-28T11:59:31;94456.81;;;8.49;66.97
27643;BME280;15053;48.618;10.024;2023-12-28T12:01:59;94451.84;;;8.52;66.69
27643;BME280;15053;48.618;10.024;2023-12-28T12:04:25;94446.91;;;8.56;66.33
27643;BME280;15053;48.618;10.024;2023-12-28T12:06:52;94454.66;;;8.61;66.48
27643;BME280;15053;48.618;10.024;2023-12-28T12:09:19;94449.69;;;8.64;66.80
27643;BME280;15053;48.618;10.024;2023-12-28T12:11:49;94450.94;;;8.72;66.34
27643;BME280;15053;48.618;10.024;2023-12-28T12:14:15;94452.47;;;8.78;66.92
27643;BME280;15053;48.618;10.024;2023-12-28T12:16:42;94442.03;;;8.83;67.16
27643;BME280;15053;48.618;10.024;2023-12-28T12:19:09;94442.00;;;8.88;67.20
27643;BME280;15053;48.618;10.024;2023-12-28T12:21:36;94448.47;;;8.90;66.94
27643;BME280;15053;48.618;10.024;2023-12-28T12:24:02;94430.81;;;8.93;66.89
27643;BME280;15053;48.618;10.024;2023-12-28T12:26:29;94436.22;;;8.96;66.98
27643;BME280;15053;48.618;10.024;2023-12-28T12:28:58;94426.84;;;9.00;67.13
27643;BME280;15053;48.618;10.024;2023-12-28T12:31:25;94421.66;;;9.00;66.91
27643;BME280;15053;48.618;10.024;2023-12-28T12:33:53;94422.94;;;9.03;67.56
27643;BME280;15053;48.618;10.024;2023-12-28T12:36:20;94423.19;;;9.06;66.84
27643;BME280;15053;48.618;10.024;2023-12-28T12:38:48;94414.56;;;9.11;66.99
27643;BME280;15053;48.618;10.024;2023-12-28T12:41:15;94422.59;;;9.14;66.90
27643;BME280;15053;48.618;10.024;2023-12-28T12:43:41;94418.38;;;9.18;67.18
27643;BME280;15053;48.618;10.024;2023-12-28T12:46:08;94417.84;;;9.21;66.97
27643;BME280;15053;48.618;10.024;2023-12-28T12:48:34;94414.75;;;9.19;67.14
27643;BME280;15053;48.618;10.024;2023-12-28T12:51:02;94423.31;;;9.20;66.87
27643;BME280;15053;48.618;10.024;2023-12-28T12:53:36;94418.38;;;9.18;66.86
27643;BME280;15053;48.618;10.024;2023-12-28T12:56:05;94416.84;;;9.17;66.89
27643;BME280;15053;48.618;10.024;2023-12-28T12:58:32;94405.94;;;9.15;67.00
27643;BME280;15053;48.618;10.024;2023-12-28T13:01:03;94414.28;;;9.12;67.44
27643;BME280;15053;48.618;10.024;2023-12-28T13:03:29;94416.63;;;9.14;67.43
27643;BME280;15053;48.618;10.024;2023-12-28T13:05:56;94421.03;;;9.13;67.75
27643;BME280;15053;48.618;10.024;2023-12-28T13:08:23;94420.75;;;9.15;67.71
27643;BME280;15053;48.618;10.024;2023-12-28T13:10:50;94424.13;;;9.15;67.57